Time;durP1;ratioP1;P1;durP2;ratioP2;P2;SDS_P1;SDS_P2;PMS_P1;PMS_P2;Temp;Humidity;BMP_temperature;BMP_pressure;BME280_temperature;BME280_humidity;BME280_pressure;Samples;Min_cycle;Max_cycle;Signal;HPM_P1;HPM_P2
2022/03/05 00:01:56;;;;;;;23.13;10.95;;;-0.80;77.70;;;;;;5001889;28;20034;-81
2022/03/05 00:04:22;;;;;;;20.33;10.70;;;-0.80;77.70;;;;;;5000199;28;20034;-80
2022/03/05 00:06:49;;;;;;;22.38;10.55;;;-0.80;77.90;;;;;;4998761;28;20414;-81
2022/03/05 00:09:17;;;;;;;19.88;9.00;;;-0.80;78.00;;;;;;4980533;28;20039;-80
2022/03/05 00:11:43;;;;;;;19.33;8.68;;;-0.80;78.20;;;;;;5006189;28;20037;-81
2022/03/05 00:14:09;;;;;;;19.73;9.07;;;-0.90;78.20;;;;;;4999415;28;20026;-81
2022/03/05 00:16:35;;;;;;;19.27;9.15;;;-0.90;78.60;;;;;;4998620;28;20041;-80
2022/03/05 00:19:01;;;;;;;19.73;9.32;;;-0.90;78.40;;;;;;4996496;28;20026;-80
2022/03/05 00:21:27;;;;;;;22.90;10.48;;;-1.00;78.60;;;;;;5014234;28;20056;-81
2022/03/05 00:23:53;;;;;;;19.90;11.02;;;-1.00;78.80;;;;;;4997792;28;20487;-80
2022/03/05 00:26:19;;;;;;;20.90;9.70;;;-1.00;79.00;;;;;;4998043;28;20046;-80
2022/03/05 00:28:44;;;;;;;22.02;10.63;;;-1.00;79.20;;;;;;4997639;28;20053;-80
2022/03/05 00:31:10;;;;;;;23.25;11.02;;;-1.00;79.40;;;;;;4998423;28;20453;-80
2022/03/05 00:33:36;;;;;;;20.73;10.23;;;-1.00;79.40;;;;;;4997420;28;20030;-80
2022/03/05 00:36:03;;;;;;;24.80;9.93;;;-1.00;79.40;;;;;;4996190;28;20022;-79
2022/03/05 00:38:28;;;;;;;25.30;11.40;;;-1.10;79.60;;;;;;4996865;28;20368;-81
2022/03/05 00:40:54;;;;;;;23.45;11.15;;;-1.10;79.70;;;;;;5004775;28;20037;-81
2022/03/05 00:43:20;;;;;;;25.75;11.50;;;-1.10;79.90;;;;;;5015214;28;20030;-81
2022/03/05 00:45:46;;;;;;;24.10;11.20;;;-1.10;80.10;;;;;;5017284;28;20060;-81
2022/03/05 00:48:11;;;;;;;24.63;11.00;;;-1.20;80.30;;;;;;5015708;28;20091;-81
2022/03/05 00:50:39;;;;;;;24.77;11.07;;;-1.20;80.60;;;;;;5020306;28;20025;-81
2022/03/05 00:53:05;;;;;;;25.85;11.80;;;-1.20;80.70;;;;;;5015817;28;20022;-80
2022/03/05 00:55:31;;;;;;;27.77;12.02;;;-1.20;81.00;;;;;;5016558;28;20038;-80
2022/03/05 00:57:57;;;;;;;28.40;11.52;;;-1.20;81.30;;;;;;5016474;28;20029;-80
2022/03/05 01:00:23;;;;;;;29.45;11.68;;;-1.20;81.50;;;;;;5017824;28;20445;-80
2022/03/05 01:02:49;;;;;;;21.23;10.90;;;-1.30;82.50;;;;;;5017631;28;20045;-81
2022/03/05 01:05:14;;;;;;;22.30;11.32;;;-1.30;82.20;;;;;;5018971;28;20034;-80
2022/03/05 01:07:40;;;;;;;29.50;12.25;;;-1.30;82.50;;;;;;5019603;28;20088;-80
2022/03/05 01:10:06;;;;;;;26.60;12.77;;;-1.40;82.70;;;;;;5004715;28;20030;-80
2022/03/05 01:12:33;;;;;;;24.00;11.68;;;-1.40;82.90;;;;;;5004702;28;20030;-81
2022/03/05 01:14:59;;;;;;;27.48;11.75;;;-1.40;83.20;;;;;;4997291;28;20490;-80
2022/03/05 01:17:24;;;;;;;28.45;11.73;;;-1.40;84.00;;;;;;5011700;28;20037;-81
2022/03/05 01:19:50;;;;;;;29.00;12.30;;;-1.40;83.50;;;;;;4996919;28;20505;-79
2022/03/05 01:22:16;;;;;;;27.38;12.70;;;-1.50;83.70;;;;;;4997977;28;20041;-80
2022/03/05 01:24:42;;;;;;;27.58;11.15;;;-1.50;83.90;;;;;;5001042;28;20042;-80
2022/03/05 01:27:07;;;;;;;23.85;12.15;;;-1.50;84.20;;;;;;5000751;28;20034;-81
2022/03/05 01:29:33;;;;;;;23.02;11.15;;;-1.50;84.40;;;;;;5012350;28;20081;-81
2022/03/05 01:31:59;;;;;;;24.92;11.27;;;-1.60;84.40;;;;;;4999048;28;20023;-81
2022/03/05 01:34:25;;;;;;;25.23;11.40;;;-1.60;84.60;;;;;;5002307;28;20106;-81
2022/03/05 01:36:51;;;;;;;29.02;12.20;;;-1.60;84.80;;;;;;4997770;28;20037;-80
2022/03/05 01:39:17;;;;;;;22.65;11.10;;;-1.60;85.10;;;;;;4996861;28;20027;-81
2022/03/05 01:41:48;;;;;;;26.67;11.77;;;-1.60;85.20;;;;;;5013213;28;20054;-81
2022/03/05 01:44:14;;;;;;;27.80;12.20;;;-1.60;85.60;;;;;;5000870;28;20415;-80
2022/03/05 01:46:40;;;;;;;21.05;11.48;;;-1.60;85.70;;;;;;4997093;28;20027;-80
2022/03/05 01:49:09;;;;;;;26.02;11.60;;;-1.60;86.10;;;;;;4995356;28;20035;-81
2022/03/05 01:51:36;;;;;;;24.52;12.02;;;-1.60;86.30;;;;;;4998744;28;20526;-82
2022/03/05 01:54:02;;;;;;;24.98;11.77;;;-1.70;86.70;;;;;;5000886;28;20452;-80
2022/03/05 01:56:29;;;;;;;29.48;12.52;;;-1.70;87.10;;;;;;5017131;28;20050;-80
2022/03/05 01:58:55;;;;;;;24.92;12.10;;;-1.70;87.40;;;;;;5013310;28;20037;-81
2022/03/05 02:01:23;;;;;;;23.75;11.50;;;-1.70;87.70;;;;;;5002797;28;20034;-80
2022/03/05 02:03:50;;;;;;;23.17;11.20;;;-1.70;88.60;;;;;;5016410;28;20021;-81
2022/03/05 02:06:15;;;;;;;23.98;11.60;;;-1.70;88.30;;;;;;5017268;28;20026;-81
2022/03/05 02:08:41;;;;;;;23.95;11.55;;;-1.70;88.40;;;;;;5016655;28;20026;-81
2022/03/05 02:11:07;;;;;;;27.00;12.20;;;-1.80;88.70;;;;;;5040133;28;20057;-81
2022/03/05 02:13:33;;;;;;;22.60;11.63;;;-1.80;89.10;;;;;;5040218;28;20014;-81
2022/03/05 02:15:59;;;;;;;27.40;12.57;;;-1.80;89.50;;;;;;5040658;28;20029;-80
2022/03/05 02:18:25;;;;;;;23.50;11.48;;;-1.80;89.50;;;;;;5040229;28;20042;-80
2022/03/05 02:20:54;;;;;;;25.30;12.00;;;-1.90;89.60;;;;;;5039214;28;20042;-80
2022/03/05 02:23:21;;;;;;;24.77;11.82;;;-1.90;89.80;;;;;;5050258;28;20032;-81
2022/03/05 02:25:53;;;;;;;22.98;11.10;;;-1.90;90.00;;;;;;5029829;28;20056;-81
2022/03/05 02:28:20;;;;;;;;;;;-1.90;90.00;;;;;;5040730;28;20041;-81
2022/03/05 02:30:46;;;;;;;24.38;10.77;;;-1.90;90.10;;;;;;5041049;28;19977;-82
2022/03/05 02:33:12;;;;;;;26.45;12.02;;;-1.90;90.10;;;;;;5040628;28;20032;-81
2022/03/05 02:35:37;;;;;;;24.95;11.32;;;-1.90;90.20;;;;;;5040424;28;20060;-79
2022/03/05 02:38:03;;;;;;;27.75;12.65;;;-1.90;90.10;;;;;;5039878;28;20030;-80
2022/03/05 02:40:29;;;;;;;25.35;12.48;;;-1.90;90.00;;;;;;5024415;28;20011;-82
2022/03/05 02:42:54;;;;;;;23.27;10.25;;;-1.90;90.10;;;;;;5056476;28;20014;-81
2022/03/05 02:45:20;;;;;;;26.60;11.73;;;-2.00;90.10;;;;;;5021976;28;20049;-82
2022/03/05 02:47:46;;;;;;;26.10;11.57;;;-2.00;90.20;;;;;;5019830;28;20045;-81
2022/03/05 02:50:11;;;;;;;22.67;11.35;;;-2.00;90.30;;;;;;5018218;28;20026;-81
2022/03/05 02:52:40;;;;;;;28.17;12.98;;;-2.00;90.30;;;;;;5017966;28;20026;-81
2022/03/05 02:55:07;;;;;;;26.17;12.25;;;-2.00;90.30;;;;;;5018995;28;20103;-82
2022/03/05 02:57:32;;;;;;;31.55;12.40;;;-2.00;90.30;;;;;;5018096;28;20524;-81
2022/03/05 02:59:58;;;;;;;26.17;11.60;;;-2.00;90.40;;;;;;5019217;28;20026;-81
2022/03/05 03:02:24;;;;;;;29.20;12.45;;;-2.00;90.40;;;;;;5018002;28;20026;-81
2022/03/05 03:04:50;;;;;;;28.70;13.07;;;-2.00;90.50;;;;;;5018470;28;20545;-81
2022/03/05 03:07:16;;;;;;;28.40;12.27;;;-2.10;90.50;;;;;;5034798;28;20113;-81
2022/03/05 03:09:42;;;;;;;27.35;12.18;;;-2.10;90.60;;;;;;5014494;28;20058;-81
2022/03/05 03:12:09;;;;;;;23.52;11.75;;;-2.10;90.70;;;;;;5011235;28;20018;-81
2022/03/05 03:14:34;;;;;;;29.25;12.25;;;-2.10;90.70;;;;;;5014500;28;20109;-80
2022/03/05 03:17:00;;;;;;;23.83;12.13;;;-2.10;90.80;;;;;;4998318;28;20064;-81
2022/03/05 03:19:26;;;;;;;23.15;11.23;;;-2.10;90.90;;;;;;4998621;28;20038;-81
2022/03/05 03:21:51;;;;;;;28.02;12.57;;;-2.10;90.90;;;;;;5000567;28;20038;-81
2022/03/05 03:24:17;;;;;;;22.30;10.55;;;-2.10;90.90;;;;;;5005339;28;20041;-80
2022/03/05 03:26:45;;;;;;;25.83;12.80;;;-2.20;90.90;;;;;;5000313;28;20034;-82
2022/03/05 03:29:11;;;;;;;26.50;13.57;;;-2.20;91.00;;;;;;4998598;28;20109;-81
2022/03/05 03:31:37;;;;;;;27.48;12.38;;;-2.20;91.00;;;;;;4998746;28;20026;-81
2022/03/05 03:34:03;;;;;;;24.83;12.13;;;-2.20;91.00;;;;;;4998840;28;20100;-81
2022/03/05 03:36:29;;;;;;;28.10;11.98;;;-2.20;91.00;;;;;;4999056;28;20022;-82
2022/03/05 03:38:55;;;;;;;25.90;12.23;;;-2.20;91.10;;;;;;4998258;28;20036;-82
2022/03/05 03:41:21;;;;;;;27.40;12.63;;;-2.30;91.20;;;;;;5006739;28;20054;-81
2022/03/05 03:43:46;;;;;;;27.13;11.45;;;-2.30;91.30;;;;;;4997285;28;20494;-82
2022/03/05 03:46:12;;;;;;;23.90;10.98;;;-2.30;91.40;;;;;;4998504;28;20023;-81
2022/03/05 03:48:38;;;;;;;26.52;12.38;;;-2.30;91.50;;;;;;4996788;28;20014;-81
2022/03/05 03:51:04;;;;;;;23.23;11.32;;;-2.30;91.60;;;;;;4998461;28;20027;-82
2022/03/05 03:53:29;;;;;;;29.50;13.13;;;-2.30;91.60;;;;;;4998604;28;20022;-80
2022/03/05 03:55:56;;;;;;;28.55;13.20;;;-2.30;91.70;;;;;;4998464;28;20031;-80
2022/03/05 03:58:22;;;;;;;30.23;12.30;;;-2.30;91.70;;;;;;4997292;28;20032;-81
2022/03/05 04:00:47;;;;;;;27.05;12.45;;;-2.30;91.80;;;;;;4998547;28;20034;-81
2022/03/05 04:03:13;;;;;;;28.65;12.23;;;-2.30;91.80;;;;;;5004907;28;20407;-81
2022/03/05 04:05:39;;;;;;;25.52;11.60;;;-2.40;91.90;;;;;;5005223;28;20026;-80
2022/03/05 04:10:49;;;;;;;25.63;12.50;;;-2.40;92.00;;;;;;5013830;28;20049;-81
2022/03/05 04:13:15;;;;;;;27.20;12.55;;;-2.40;92.10;;;;;;5005283;28;20023;-81
2022/03/05 04:15:41;;;;;;;24.05;11.10;;;-2.40;92.20;;;;;;5001002;28;20391;-82
2022/03/05 04:18:07;;;;;;;25.77;12.15;;;-2.40;92.30;;;;;;4997064;28;20034;-82
2022/03/05 04:20:33;;;;;;;24.40;11.23;;;-2.40;92.40;;;;;;4998704;28;20446;-82
2022/03/05 04:22:59;;;;;;;22.52;10.75;;;-2.40;92.50;;;;;;4998404;28;20456;-82
2022/03/05 04:25:26;;;;;;;26.30;12.45;;;-2.40;92.50;;;;;;5014034;28;20065;-82
2022/03/05 04:27:52;;;;;;;23.58;12.88;;;-2.40;92.60;;;;;;4998845;28;20399;-81
2022/03/05 04:30:18;;;;;;;26.15;13.02;;;-2.50;92.60;;;;;;4999452;28;20034;-81
2022/03/05 04:32:43;;;;;;;28.40;12.68;;;-2.40;92.80;;;;;;5004816;28;20026;-81
2022/03/05 04:35:09;;;;;;;28.75;12.43;;;-2.50;92.80;;;;;;5001801;28;20533;-81
2022/03/05 04:37:37;;;;;;;30.85;12.68;;;-2.50;92.90;;;;;;5019014;28;20030;-81
2022/03/05 04:40:03;;;;;;;24.80;12.18;;;-2.60;93.10;;;;;;5008914;28;20495;-81
2022/03/05 04:42:29;;;;;;;28.08;12.20;;;-2.60;93.30;;;;;;5034508;28;20067;-81
2022/03/05 04:44:55;;;;;;;28.30;12.88;;;-2.70;93.50;;;;;;5038105;28;20034;-81
2022/03/05 04:47:21;;;;;;;22.83;11.48;;;-2.70;93.70;;;;;;5021840;28;20033;-81
2022/03/05 04:49:47;;;;;;;27.80;12.52;;;-2.80;93.90;;;;;;5017323;28;20639;-81
2022/03/05 04:52:13;;;;;;;27.15;13.00;;;-2.80;94.10;;;;;;5019943;28;20026;-82
2022/03/05 04:54:38;;;;;;;29.45;13.48;;;-2.80;94.30;;;;;;5020562;28;20034;-82
2022/03/05 04:57:04;;;;;;;24.02;12.75;;;-2.80;94.40;;;;;;5020353;28;20022;-81
2022/03/05 04:59:30;;;;;;;29.40;12.23;;;-2.80;94.50;;;;;;5017860;28;20097;-81
2022/03/05 05:01:56;;;;;;;28.10;12.68;;;-2.80;94.60;;;;;;5020708;28;20441;-81
2022/03/05 05:04:23;;;;;;;27.20;12.20;;;-2.90;94.70;;;;;;5037344;28;20089;-82
2022/03/05 05:06:49;;;;;;;29.15;12.40;;;-2.90;94.80;;;;;;5037173;28;20082;-81
2022/03/05 05:09:14;;;;;;;24.75;11.40;;;-2.90;95.00;;;;;;5051330;28;20034;-81
2022/03/05 05:11:41;;;;;;;28.55;12.60;;;-2.90;95.10;;;;;;5005917;28;20099;-81
2022/03/05 05:14:10;;;;;;;24.05;11.77;;;-2.90;95.20;;;;;;5012137;28;20027;-81
2022/03/05 05:16:36;;;;;;;29.88;13.15;;;-2.90;95.30;;;;;;5016486;28;20033;-80
2022/03/05 05:21:47;;;;;;;26.75;12.63;;;-2.80;95.40;;;;;;5006963;28;20042;-82
2022/03/05 05:24:13;;;;;;;24.23;11.98;;;-2.90;95.40;;;;;;5008963;28;20022;-80
2022/03/05 05:26:38;;;;;;;20.88;11.02;;;-2.90;95.50;;;;;;5000460;28;20022;-81
2022/03/05 05:29:04;;;;;;;27.00;12.00;;;-2.90;95.80;;;;;;5006011;28;20030;-81
2022/03/05 05:31:30;;;;;;;28.95;13.10;;;-2.90;95.70;;;;;;5010816;28;20018;-82
2022/03/05 05:33:56;;;;;;;30.58;12.82;;;-2.90;95.80;;;;;;5018322;28;20033;-80
2022/03/05 05:36:22;;;;;;;26.92;12.05;;;-2.90;95.80;;;;;;5003125;28;20027;-79
2022/03/05 05:38:47;;;;;;;28.25;13.95;;;-2.90;95.90;;;;;;5002464;28;20057;-80
2022/03/05 05:41:14;;;;;;;29.38;13.50;;;-2.80;96.10;;;;;;5028059;28;20035;-80
2022/03/05 05:43:40;;;;;;;28.38;14.23;;;-2.80;96.10;;;;;;5021117;28;20181;-81
2022/03/05 05:46:06;;;;;;;29.05;12.48;;;-2.80;96.20;;;;;;5020696;28;20061;-81
2022/03/05 05:48:32;;;;;;;28.70;13.95;;;-2.80;96.20;;;;;;5019834;28;20034;-81
2022/03/05 05:50:58;;;;;;;27.35;12.48;;;-2.80;96.30;;;;;;5021076;28;20109;-81
2022/03/05 05:53:25;;;;;;;33.67;13.80;;;-2.80;96.30;;;;;;5038617;28;20032;-82
2022/03/05 05:55:53;;;;;;;31.20;14.35;;;-2.80;96.40;;;;;;5020358;28;20034;-81
2022/03/05 05:58:19;;;;;;;34.10;14.23;;;-2.80;96.40;;;;;;5020609;28;20398;-81
2022/03/05 06:00:45;;;;;;;26.92;13.38;;;-2.80;96.40;;;;;;5027140;28;20027;-81
2022/03/05 06:03:11;;;;;;;29.02;13.75;;;-2.80;96.50;;;;;;5006614;28;20538;-81
2022/03/05 06:05:36;;;;;;;28.92;13.10;;;-2.70;96.60;;;;;;5001189;28;20026;-83
2022/03/05 06:08:02;;;;;;;25.17;12.38;;;-2.80;96.60;;;;;;5000717;28;20046;-82
2022/03/05 06:10:28;;;;;;;24.20;12.48;;;-2.80;96.60;;;;;;5011308;28;20068;-83
2022/03/05 06:12:54;;;;;;;30.63;13.80;;;-2.80;96.60;;;;;;5006164;28;20034;-81
2022/03/05 06:15:20;;;;;;;25.85;11.70;;;-2.80;96.70;;;;;;5001293;28;20034;-81
2022/03/05 06:17:46;;;;;;;27.60;12.73;;;-2.80;96.80;;;;;;5000713;28;20023;-81
2022/03/05 06:20:12;;;;;;;31.58;13.15;;;-2.80;96.90;;;;;;4998856;28;20471;-80
2022/03/05 06:22:38;;;;;;;33.90;13.52;;;-2.80;97.10;;;;;;5001232;28;20026;-82
2022/03/05 06:25:05;;;;;;;28.45;13.27;;;-2.80;97.10;;;;;;5000808;28;20480;-80
2022/03/05 06:27:31;;;;;;;31.33;14.70;;;-2.80;97.20;;;;;;5000380;28;20030;-81
2022/03/05 06:29:57;;;;;;;24.00;11.93;;;-2.80;97.20;;;;;;5000216;28;20483;-80
2022/03/05 06:32:23;;;;;;;26.98;12.90;;;-2.80;97.20;;;;;;5000950;28;20026;-80
2022/03/05 06:34:49;;;;;;;28.20;11.57;;;-2.70;97.40;;;;;;5000188;28;20053;-81
2022/03/05 06:37:15;;;;;;;28.10;13.23;;;-2.70;97.40;;;;;;5002214;28;20033;-80
2022/03/05 06:39:40;;;;;;;28.77;13.50;;;-2.70;97.40;;;;;;5004315;28;20449;-80
2022/03/05 06:42:07;;;;;;;24.13;12.05;;;-2.60;97.40;;;;;;5020987;28;20037;-80
2022/03/05 06:44:35;;;;;;;32.05;13.65;;;-2.50;97.40;;;;;;5022278;28;20048;-80
2022/03/05 06:47:02;;;;;;;29.58;13.52;;;-2.50;97.30;;;;;;5039104;28;20047;-80
2022/03/05 06:49:27;;;;;;;30.60;14.05;;;-2.40;97.20;;;;;;5030065;28;20084;-80
2022/03/05 06:51:53;;;;;;;30.83;13.60;;;-2.30;97.00;;;;;;5020195;28;20026;-80
2022/03/05 06:54:19;;;;;;;30.38;14.88;;;-2.30;97.00;;;;;;5019132;28;20034;-80
2022/03/05 06:56:44;;;;;;;34.03;15.23;;;-2.20;96.80;;;;;;5021429;28;20445;-80
2022/03/05 06:59:10;;;;;;;27.23;13.65;;;-2.10;96.80;;;;;;5019447;28;20021;-81
2022/03/05 07:01:36;;;;;;;34.05;15.38;;;-2.10;96.70;;;;;;5021272;28;20068;-80
2022/03/05 07:04:02;;;;;;;30.63;13.30;;;-2.00;96.70;;;;;;5020063;28;20022;-79
2022/03/05 07:06:27;;;;;;;30.40;14.20;;;-1.90;96.50;;;;;;5034380;28;20103;-80
2022/03/05 07:08:53;;;;;;;31.00;14.82;;;-1.90;96.40;;;;;;5019553;28;20049;-80
2022/03/05 07:11:19;;;;;;;29.17;14.18;;;-1.80;96.00;;;;;;5012064;28;20026;-81
2022/03/05 07:13:45;;;;;;;34.80;13.90;;;-1.70;96.00;;;;;;5020322;28;20057;-81
2022/03/05 07:16:11;;;;;;;30.35;14.10;;;-1.60;95.90;;;;;;5020156;28;20057;-80
2022/03/05 07:18:37;;;;;;;35.03;15.48;;;-1.50;95.80;;;;;;5019008;28;20041;-80
2022/03/05 07:21:02;;;;;;;35.95;15.68;;;-1.40;95.60;;;;;;5035344;28;20498;-80
2022/03/05 07:23:28;;;;;;;34.50;15.38;;;-1.30;95.20;;;;;;5020309;28;20029;-80
2022/03/05 07:25:54;;;;;;;38.58;15.90;;;-1.30;94.90;;;;;;5022674;28;20057;-80
2022/03/05 07:28:20;;;;;;;31.27;14.82;;;-1.20;94.80;;;;;;5037390;28;20037;-80
2022/03/05 07:30:45;;;;;;;32.72;15.35;;;-1.10;94.80;;;;;;5037364;28;20041;-79
2022/03/05 07:33:11;;;;;;;31.58;15.48;;;-0.90;94.80;;;;;;5037650;28;20021;-79
2022/03/05 07:35:37;;;;;;;37.63;16.65;;;-0.80;94.60;;;;;;5037910;28;20030;-80
2022/03/05 07:38:02;;;;;;;39.83;17.50;;;-0.70;93.70;;;;;;5038511;28;20053;-81
2022/03/05 07:40:28;;;;;;;31.58;15.25;;;-0.60;93.30;;;;;;5023562;28;20021;-79
2022/03/05 07:42:54;;;;;;;30.85;15.68;;;-0.60;93.20;;;;;;5019328;28;20499;-80
2022/03/05 07:45:20;;;;;;;33.05;16.45;;;-0.50;93.20;;;;;;5018203;28;20434;-80
2022/03/05 07:47:46;;;;;;;28.15;13.90;;;-0.40;93.00;;;;;;5019177;28;20034;-81
2022/03/05 07:50:12;;;;;;;24.75;13.43;;;-0.20;93.10;;;;;;5021433;28;20037;-80
2022/03/05 07:52:37;;;;;;;33.15;14.90;;;-0.10;92.90;;;;;;5020662;28;20053;-81
2022/03/05 07:55:04;;;;;;;35.13;16.35;;;0.10;92.50;;;;;;5018993;28;20026;-81
2022/03/05 07:57:32;;;;;;;35.35;16.08;;;0.30;91.80;;;;;;5019962;28;20434;-82
2022/03/05 07:59:58;;;;;;;31.23;15.45;;;0.40;91.40;;;;;;5033543;28;20033;-81
2022/03/05 08:02:24;;;;;;;31.23;16.05;;;0.40;91.40;;;;;;5019921;28;20113;-80
2022/03/05 08:04:50;;;;;;;38.42;15.70;;;0.60;90.90;;;;;;5018277;28;20034;-80
2022/03/05 08:07:16;;;;;;;34.03;14.30;;;0.70;90.20;;;;;;5019288;28;20126;-80
2022/03/05 08:09:43;;;;;;;31.48;15.10;;;0.70;90.40;;;;;;5014644;28;20090;-81
2022/03/05 08:12:10;;;;;;;33.80;14.95;;;0.80;90.60;;;;;;5019617;28;20018;-81
2022/03/05 08:14:41;;;;;;;29.67;15.43;;;1.10;90.30;;;;;;5018906;28;20509;-81
2022/03/05 08:17:07;;;;;;;28.45;15.00;;;1.30;90.10;;;;;;5017988;28;20036;-81
2022/03/05 08:19:33;;;;;;;31.02;15.70;;;1.50;89.00;;;;;;5020733;28;20486;-81
2022/03/05 08:21:59;;;;;;;30.63;15.57;;;1.70;88.10;;;;;;5019974;28;20105;-82
2022/03/05 08:24:24;;;;;;;32.88;16.35;;;1.90;87.30;;;;;;5018617;28;20021;-81
2022/03/05 08:26:50;;;;;;;36.72;17.60;;;1.90;85.60;;;;;;5019688;28;20082;-82
2022/03/05 08:29:16;;;;;;;30.60;15.68;;;2.00;85.80;;;;;;5020701;28;20113;-81
2022/03/05 08:31:41;;;;;;;32.30;16.88;;;2.20;85.70;;;;;;5019197;28;20026;-81
2022/03/05 08:34:07;;;;;;;32.05;17.27;;;2.40;84.40;;;;;;5017620;28;20394;-81
2022/03/05 08:36:33;;;;;;;27.27;15.73;;;2.40;83.50;;;;;;5017613;28;20025;-81
2022/03/05 08:38:59;;;;;;;31.80;16.58;;;2.70;83.60;;;;;;5015241;28;20406;-81
2022/03/05 08:41:26;;;;;;;31.63;17.33;;;2.90;81.30;;;;;;5008359;28;20022;-81
2022/03/05 08:43:52;;;;;;;33.00;16.80;;;2.90;80.00;;;;;;4997445;28;20046;-81
2022/03/05 08:46:18;;;;;;;33.70;15.75;;;3.00;79.20;;;;;;4998483;28;20042;-80
2022/03/05 08:48:44;;;;;;;32.45;16.95;;;2.90;78.10;;;;;;5006821;28;20049;-81
2022/03/05 08:51:10;;;;;;;32.80;16.17;;;2.80;78.70;;;;;;5013758;28;20074;-81
2022/03/05 08:53:36;;;;;;;32.25;16.20;;;2.90;79.60;;;;;;5004390;28;20018;-81
2022/03/05 08:56:02;;;;;;;26.90;14.63;;;3.10;78.90;;;;;;4999502;28;20073;-81
2022/03/05 08:58:27;;;;;;;28.67;15.68;;;3.50;78.70;;;;;;4998157;28;20423;-81
2022/03/05 09:00:53;;;;;;;30.45;15.80;;;3.70;77.30;;;;;;4999056;28;20038;-81
2022/03/05 09:03:19;;;;;;;28.67;14.90;;;3.90;75.60;;;;;;4997692;28;20038;-82
2022/03/05 09:05:46;;;;;;;30.13;14.70;;;4.10;74.60;;;;;;4997461;28;20018;-81
2022/03/05 09:08:13;;;;;;;26.73;14.60;;;4.40;73.80;;;;;;4999418;28;20030;-81
2022/03/05 09:10:39;;;;;;;25.30;15.27;;;4.60;72.40;;;;;;5007225;28;20022;-81
2022/03/05 09:13:05;;;;;;;26.23;14.70;;;4.80;71.20;;;;;;4997605;28;20036;-80
2022/03/05 09:15:31;;;;;;;25.63;14.68;;;5.20;70.10;;;;;;4999185;28;20046;-80
2022/03/05 09:17:57;;;;;;;23.30;13.38;;;5.50;68.10;;;;;;4998858;28;20539;-81
2022/03/05 09:20:23;;;;;;;27.70;15.15;;;5.40;65.80;;;;;;4999175;28;20077;-80
2022/03/05 09:22:49;;;;;;;25.77;13.93;;;4.90;64.60;;;;;;4998564;28;20546;-82
2022/03/05 09:25:15;;;;;;;24.92;13.65;;;4.30;67.00;;;;;;4998131;28;20026;-80
2022/03/05 09:27:42;;;;;;;25.92;14.10;;;3.80;68.50;;;;;;4997564;28;20030;-81
2022/03/05 09:30:09;;;;;;;22.05;12.65;;;3.50;68.60;;;;;;4997597;28;20031;-80
2022/03/05 09:32:35;;;;;;;24.73;13.80;;;3.40;69.90;;;;;;4999125;28;20025;-81
2022/03/05 09:35:01;;;;;;;23.17;12.57;;;3.60;68.50;;;;;;5001274;28;20050;-81
2022/03/05 09:37:28;;;;;;;29.08;14.38;;;3.40;68.10;;;;;;4997376;28;20121;-80
2022/03/05 09:39:54;;;;;;;26.88;13.75;;;3.20;69.20;;;;;;4998410;28;20383;-80
2022/03/05 09:42:20;;;;;;;24.23;13.50;;;3.20;69.70;;;;;;5007517;28;20022;-81
2022/03/05 09:44:46;;;;;;;23.60;13.85;;;3.20;69.40;;;;;;5000981;28;20041;-80
2022/03/05 09:47:12;;;;;;;28.80;14.90;;;3.10;69.40;;;;;;4998463;28;20038;-82
2022/03/05 09:49:38;;;;;;;26.60;13.57;;;3.00;70.40;;;;;;4999608;28;20046;-82
2022/03/05 09:52:06;;;;;;;25.85;12.95;;;2.90;70.90;;;;;;4999293;28;20023;-81
2022/03/05 09:54:32;;;;;;;17.15;9.73;;;3.00;70.80;;;;;;4998477;28;20030;-81
2022/03/05 09:56:57;;;;;;;19.75;10.88;;;3.20;68.60;;;;;;4997067;28;20443;-81
2022/03/05 09:59:23;;;;;;;18.83;10.70;;;3.50;67.40;;;;;;4996959;28;20035;-82
2022/03/05 10:01:50;;;;;;;23.50;12.07;;;3.70;66.60;;;;;;5001292;28;20038;-82
2022/03/05 10:04:24;;;;;;;22.48;11.90;;;3.80;64.90;;;;;;4998364;28;20019;-82
2022/03/05 10:07:09;;;;;;;21.55;11.77;;;3.80;65.20;;;;;;4998998;28;20022;-81
2022/03/05 10:09:36;;;;;;;18.40;10.73;;;3.80;63.40;;;;;;4999655;28;20025;-82
2022/03/05 10:12:02;;;;;;;22.35;10.40;;;3.90;62.70;;;;;;5008860;28;20037;-81
2022/03/05 10:14:28;;;;;;;19.77;9.93;;;3.80;61.10;;;;;;5020863;28;20045;-81
2022/03/05 10:17:04;;;;;;;19.70;10.25;;;3.80;61.60;;;;;;5020918;28;20033;-81
2022/03/05 10:19:30;;;;;;;17.42;11.10;;;3.80;61.30;;;;;;5022639;28;20030;-81
2022/03/05 10:22:06;;;;;;;16.45;9.55;;;3.80;59.80;;;;;;5019718;28;20378;-81
2022/03/05 10:24:37;;;;;;;15.52;8.73;;;3.90;60.00;;;;;;5018909;28;20026;-81
2022/03/05 10:27:05;;;;;;;18.05;9.93;;;4.00;59.20;;;;;;5021298;28;20135;-81
2022/03/05 10:29:37;;;;;;;17.50;9.95;;;4.10;59.40;;;;;;5021267;28;20022;-81
2022/03/05 10:32:10;;;;;;;18.25;8.80;;;4.20;58.90;;;;;;5021748;28;20033;-80
2022/03/05 10:34:44;;;;;;;18.15;9.07;;;4.20;57.90;;;;;;5019503;28;20030;-80
2022/03/05 10:37:10;;;;;;;16.05;8.70;;;4.30;57.40;;;;;;5022205;28;20024;-81
2022/03/05 10:39:36;;;;;;;15.27;8.40;;;4.30;56.50;;;;;;5016740;28;20089;-82
2022/03/05 10:42:14;;;;;;;16.15;7.93;;;4.50;56.90;;;;;;5014648;28;20022;-81
2022/03/05 10:44:40;;;;;;;13.00;7.45;;;4.60;55.80;;;;;;5017785;28;20033;-82
2022/03/05 10:47:06;;;;;;;13.57;8.13;;;4.70;54.70;;;;;;5003123;28;20019;-81
2022/03/05 10:49:37;;;;;;;14.07;8.10;;;4.80;54.10;;;;;;5003022;28;20026;-81
2022/03/05 10:52:03;;;;;;;13.27;7.30;;;5.10;54.30;;;;;;5003574;28;20025;-81
2022/03/05 10:54:32;;;;;;;13.02;7.22;;;5.50;53.10;;;;;;5012649;28;20027;-81
2022/03/05 10:57:09;;;;;;;14.75;7.70;;;6.00;51.60;;;;;;5010900;28;20045;-80
2022/03/05 10:59:39;;;;;;;14.10;7.47;;;6.10;50.30;;;;;;5001027;28;20427;-81
2022/03/05 11:02:06;;;;;;;16.45;7.57;;;6.10;49.70;;;;;;5002608;28;20495;-81
2022/03/05 11:04:35;;;;;;;14.02;8.00;;;6.00;50.20;;;;;;5002316;28;20034;-81
2022/03/05 11:07:01;;;;;;;18.15;8.90;;;6.00;50.40;;;;;;5003356;28;20018;-82
2022/03/05 11:09:29;;;;;;;13.65;7.43;;;6.20;50.10;;;;;;5006938;28;20337;-81
2022/03/05 11:11:59;;;;;;;14.52;7.78;;;6.50;49.40;;;;;;5022571;28;20022;-81
2022/03/05 11:14:25;;;;;;;14.07;7.60;;;6.80;49.00;;;;;;5022122;28;20084;-82
2022/03/05 11:16:51;;;;;;;13.90;7.80;;;7.50;48.10;;;;;;5022861;28;20101;-82
2022/03/05 11:19:17;;;;;;;14.52;7.90;;;7.70;46.20;;;;;;5020523;28;20075;-80
2022/03/05 11:21:43;;;;;;;12.20;7.25;;;7.60;46.00;;;;;;5023388;28;20475;-80
2022/03/05 11:24:13;;;;;;;13.68;8.00;;;7.60;45.40;;;;;;5022245;28;20022;-81
2022/03/05 11:26:40;;;;;;;14.32;8.25;;;7.70;46.20;;;;;;5020508;28;20483;-81
2022/03/05 11:29:06;;;;;;;15.63;8.35;;;7.80;46.10;;;;;;5019878;28;20096;-81
2022/03/05 11:31:35;;;;;;;14.13;8.18;;;7.80;44.60;;;;;;5021336;28;20018;-81
2022/03/05 11:34:41;;;;;;;13.20;7.88;;;7.00;45.80;;;;;;5020315;28;20541;-81
2022/03/05 11:37:33;;;;;;;14.05;8.10;;;6.10;46.70;;;;;;5014893;28;20128;-82
2022/03/05 11:40:01;;;;;;;15.82;8.80;;;5.70;48.40;;;;;;5017404;28;20022;-80
2022/03/05 11:42:35;;;;;;;13.00;7.97;;;5.30;49.20;;;;;;5003054;28;20034;-82
2022/03/05 11:45:24;;;;;;;13.43;7.78;;;5.20;50.40;;;;;;5001149;28;20022;-81
2022/03/05 11:47:49;;;;;;;11.13;6.25;;;5.30;49.10;;;;;;4999706;28;20400;-81
2022/03/05 11:50:16;;;;;;;12.02;6.45;;;5.40;49.10;;;;;;5001373;28;20049;-81
2022/03/05 11:52:42;;;;;;;13.52;6.97;;;5.90;49.00;;;;;;4999908;28;20034;-82
2022/03/05 11:55:13;;;;;;;15.00;7.82;;;6.60;47.60;;;;;;5001433;28;20085;-81
2022/03/05 11:57:50;;;;;;;14.02;7.75;;;7.10;46.40;;;;;;5001927;28;20028;-82
2022/03/05 12:00:19;;;;;;;13.93;7.93;;;6.90;46.20;;;;;;5001768;28;20091;-80
2022/03/05 12:02:54;;;;;;;15.73;8.30;;;6.40;46.40;;;;;;5002017;28;20364;-81
2022/03/05 12:05:38;;;;;;;12.82;7.70;;;5.70;48.40;;;;;;5017894;28;20483;-80
2022/03/05 12:08:12;;;;;;;13.60;7.75;;;5.40;49.30;;;;;;5002519;28;20031;-81
2022/03/05 12:10:39;;;;;;;13.30;7.55;;;5.30;50.10;;;;;;5002927;28;20030;-80
2022/03/05 12:13:15;;;;;;;12.10;7.18;;;5.30;49.60;;;;;;5018734;28;20383;-80
2022/03/05 12:15:42;;;;;;;11.25;6.85;;;5.40;49.30;;;;;;5026789;28;20026;-80
2022/03/05 12:18:15;;;;;;;11.82;6.95;;;5.60;48.20;;;;;;5028066;28;20071;-79
2022/03/05 12:20:44;;;;;;;12.50;6.60;;;5.70;47.70;;;;;;5037721;28;20022;-80
2022/03/05 12:23:17;;;;;;;13.77;7.47;;;5.90;47.60;;;;;;5037897;28;20014;-79
2022/03/05 12:25:45;;;;;;;11.57;6.97;;;6.20;46.30;;;;;;5037834;28;20077;-80
2022/03/05 12:28:25;;;;;;;13.00;7.30;;;6.20;46.40;;;;;;5038154;28;20030;-83
2022/03/05 12:30:58;;;;;;;11.43;6.95;;;6.60;45.20;;;;;;5038226;28;20037;-80
2022/03/05 12:33:24;;;;;;;15.00;7.32;;;6.50;45.00;;;;;;5029167;28;20018;-81
2022/03/05 12:35:50;;;;;;;13.05;7.78;;;6.70;45.70;;;;;;5028275;28;20026;-80
2022/03/05 12:38:18;;;;;;;13.52;6.78;;;6.80;44.70;;;;;;5026844;28;20037;-80